sensor_id;sensor_type;location;lat;lon;timestamp;P1;durP1;ratioP1;P2;durP2;ratioP2
34924;SDS011;21130;51.728;8.748;2023-03-01T00:02:00;17.00;;;12.32;;
34924;SDS011;21130;51.728;8.748;2023-03-01T00:04:27;15.38;;;11.68;;
34924;SDS011;21130;51.728;8.748;2023-03-01T00:06:53;17.45;;;13.07;;
34924;SDS011;21130;51.728;8.748;2023-03-01T00:09:20;20.55;;;12.63;;
34924;SDS011;21130;51.728;8.748;2023-03-01T00:11:48;18.58;;;13.90;;
34924;SDS011;21130;51.728;8.748;2023-03-01T00:14:15;20.30;;;12.93;;
34924;SDS011;21130;51.728;8.748;2023-03-01T00:16:42;16.85;;;13.45;;
34924;SDS011;21130;51.728;8.748;2023-03-01T00:19:11;17.98;;;12.90;;
34924;SDS011;21130;51.728;8.748;2023-03-01T00:21:39;20.05;;;13.60;;
34924;SDS011;21130;51.728;8.748;2023-03-01T00:24:06;18.58;;;12.88;;
34924;SDS011;21130;51.728;8.748;2023-03-01T00:26:33;17.13;;;12.73;;
34924;SDS011;21130;51.728;8.748;2023-03-01T00:29:01;16.95;;;12.75;;
34924;SDS011;21130;51.728;8.748;2023-03-01T00:31:28;17.38;;;12.65;;
34924;SDS011;21130;51.728;8.748;2023-03-01T00:33:57;17.95;;;13.98;;
34924;SDS011;21130;51.728;8.748;2023-03-01T00:36:25;19.40;;;13.77;;
34924;SDS011;21130;51.728;8.748;2023-03-01T00:39:13;17.30;;;12.90;;
34924;SDS011;21130;51.728;8.748;2023-03-01T00:41:40;18.25;;;13.30;;
34924;SDS011;21130;51.728;8.748;2023-03-01T00:44:27;19.92;;;13.75;;
34924;SDS011;21130;51.728;8.748;2023-03-01T00:47:13;17.63;;;13.02;;
34924;SDS011;21130;51.728;8.748;2023-03-01T00:50:00;18.20;;;13.20;;
34924;SDS011;21130;51.728;8.748;2023-03-01T00:52:41;17.95;;;13.90;;
34924;SDS011;21130;51.728;8.748;2023-03-01T00:55:08;17.15;;;13.73;;
34924;SDS011;21130;51.728;8.748;2023-03-01T00:57:35;18.55;;;13.73;;
34924;SDS011;21130;51.728;8.748;2023-03-01T01:00:03;18.48;;;13.65;;
34924;SDS011;21130;51.728;8.748;2023-03-01T01:02:31;21.55;;;14.82;;
34924;SDS011;21130;51.728;8.748;2023-03-01T01:04:59;19.58;;;13.93;;
34924;SDS011;21130;51.728;8.748;2023-03-01T01:07:25;20.60;;;15.07;;
34924;SDS011;21130;51.728;8.748;2023-03-01T01:09:52;19.73;;;14.45;;
34924;SDS011;21130;51.728;8.748;2023-03-01T01:12:18;19.58;;;13.95;;
34924;SDS011;21130;51.728;8.748;2023-03-01T01:14:44;20.40;;;14.27;;
34924;SDS011;21130;51.728;8.748;2023-03-01T01:17:12;22.08;;;14.70;;
34924;SDS011;21130;51.728;8.748;2023-03-01T01:19:39;18.55;;;14.35;;
34924;SDS011;21130;51.728;8.748;2023-03-01T01:22:05;20.88;;;13.82;;
34924;SDS011;21130;51.728;8.748;2023-03-01T01:24:32;20.67;;;14.95;;
34924;SDS011;21130;51.728;8.748;2023-03-01T01:26:58;20.42;;;14.00;;
34924;SDS011;21130;51.728;8.748;2023-03-01T01:29:25;20.73;;;14.40;;
34924;SDS011;21130;51.728;8.748;2023-03-01T01:31:51;20.27;;;13.75;;
34924;SDS011;21130;51.728;8.748;2023-03-01T01:34:20;18.80;;;13.82;;
34924;SDS011;21130;51.728;8.748;2023-03-01T01:36:48;21.08;;;13.77;;
34924;SDS011;21130;51.728;8.748;2023-03-01T01:39:15;17.52;;;13.77;;
34924;SDS011;21130;51.728;8.748;2023-03-01T01:41:42;22.10;;;14.48;;
34924;SDS011;21130;51.728;8.748;2023-03-01T01:44:16;19.48;;;14.15;;
34924;SDS011;21130;51.728;8.748;2023-03-01T01:46:44;18.60;;;14.63;;
34924;SDS011;21130;51.728;8.748;2023-03-01T01:49:18;23.48;;;15.85;;
34924;SDS011;21130;51.728;8.748;2023-03-01T01:51:49;20.73;;;14.90;;
34924;SDS011;21130;51.728;8.748;2023-03-01T01:54:20;21.38;;;15.45;;
34924;SDS011;21130;51.728;8.748;2023-03-01T01:56:52;21.80;;;15.20;;
34924;SDS011;21130;51.728;8.748;2023-03-01T01:59:22;19.50;;;14.40;;
34924;SDS011;21130;51.728;8.748;2023-03-01T02:01:54;21.40;;;14.30;;
34924;SDS011;21130;51.728;8.748;2023-03-01T02:04:22;20.77;;;14.30;;
34924;SDS011;21130;51.728;8.748;2023-03-01T02:06:49;20.13;;;13.93;;
34924;SDS011;21130;51.728;8.748;2023-03-01T02:09:20;21.77;;;14.70;;
34924;SDS011;21130;51.728;8.748;2023-03-01T02:11:49;20.50;;;14.35;;
34924;SDS011;21130;51.728;8.748;2023-03-01T02:14:17;19.83;;;14.50;;
34924;SDS011;21130;51.728;8.748;2023-03-01T02:16:43;19.98;;;14.48;;
34924;SDS011;21130;51.728;8.748;2023-03-01T02:19:10;17.58;;;13.52;;
34924;SDS011;21130;51.728;8.748;2023-03-01T02:21:45;21.30;;;14.38;;
34924;SDS011;21130;51.728;8.748;2023-03-01T02:24:20;20.52;;;13.75;;
34924;SDS011;21130;51.728;8.748;2023-03-01T02:26:58;16.65;;;12.77;;
34924;SDS011;21130;51.728;8.748;2023-03-01T02:29:27;18.10;;;13.20;;
34924;SDS011;21130;51.728;8.748;2023-03-01T02:31:54;16.70;;;13.00;;
34924;SDS011;21130;51.728;8.748;2023-03-01T02:34:24;18.30;;;13.57;;
34924;SDS011;21130;51.728;8.748;2023-03-01T02:36:52;21.45;;;14.05;;
34924;SDS011;21130;51.728;8.748;2023-03-01T02:39:22;18.65;;;13.30;;
34924;SDS011;21130;51.728;8.748;2023-03-01T02:41:52;19.25;;;13.55;;
34924;SDS011;21130;51.728;8.748;2023-03-01T02:44:22;18.08;;;13.07;;
34924;SDS011;21130;51.728;8.748;2023-03-01T02:46:51;17.23;;;12.80;;
34924;SDS011;21130;51.728;8.748;2023-03-01T02:49:22;19.83;;;13.60;;
34924;SDS011;21130;51.728;8.748;2023-03-01T02:54:49;17.92;;;13.35;;
34924;SDS011;21130;51.728;8.748;2023-03-01T02:57:20;18.45;;;13.27;;
34924;SDS011;21130;51.728;8.748;2023-03-01T02:59:48;19.05;;;13.63;;
34924;SDS011;21130;51.728;8.748;2023-03-01T03:02:22;17.65;;;13.02;;
34924;SDS011;21130;51.728;8.748;2023-03-01T03:05:01;21.92;;;14.68;;
34924;SDS011;21130;51.728;8.748;2023-03-01T03:07:31;19.65;;;13.77;;
34924;SDS011;21130;51.728;8.748;2023-03-01T03:09:58;20.60;;;15.05;;
34924;SDS011;21130;51.728;8.748;2023-03-01T03:12:24;19.60;;;13.43;;
34924;SDS011;21130;51.728;8.748;2023-03-01T03:14:51;18.42;;;13.45;;
34924;SDS011;21130;51.728;8.748;2023-03-01T03:17:17;21.08;;;14.88;;
34924;SDS011;21130;51.728;8.748;2023-03-01T03:19:45;19.50;;;13.55;;
34924;SDS011;21130;51.728;8.748;2023-03-01T03:22:11;19.98;;;13.90;;
34924;SDS011;21130;51.728;8.748;2023-03-01T03:24:38;20.88;;;14.38;;
34924;SDS011;21130;51.728;8.748;2023-03-01T03:27:05;19.58;;;13.43;;
34924;SDS011;21130;51.728;8.748;2023-03-01T03:29:32;19.70;;;14.30;;
34924;SDS011;21130;51.728;8.748;2023-03-01T03:31:59;20.10;;;14.77;;
34924;SDS011;21130;51.728;8.748;2023-03-01T03:34:25;18.45;;;14.00;;
34924;SDS011;21130;51.728;8.748;2023-03-01T03:36:54;18.63;;;13.55;;
34924;SDS011;21130;51.728;8.748;2023-03-01T03:39:24;18.35;;;13.75;;
34924;SDS011;21130;51.728;8.748;2023-03-01T03:41:51;19.60;;;13.95;;
34924;SDS011;21130;51.728;8.748;2023-03-01T03:44:18;17.48;;;13.60;;
34924;SDS011;21130;51.728;8.748;2023-03-01T03:46:44;19.38;;;14.18;;
34924;SDS011;21130;51.728;8.748;2023-03-01T03:49:10;19.08;;;14.45;;
34924;SDS011;21130;51.728;8.748;2023-03-01T03:51:37;22.50;;;14.93;;
34924;SDS011;21130;51.728;8.748;2023-03-01T03:54:05;23.05;;;15.07;;
34924;SDS011;21130;51.728;8.748;2023-03-01T03:56:31;20.98;;;14.68;;
34924;SDS011;21130;51.728;8.748;2023-03-01T03:58:57;21.45;;;14.52;;
34924;SDS011;21130;51.728;8.748;2023-03-01T04:01:24;18.52;;;13.98;;
34924;SDS011;21130;51.728;8.748;2023-03-01T04:03:50;22.10;;;14.02;;
34924;SDS011;21130;51.728;8.748;2023-03-01T04:06:19;19.27;;;14.13;;
34924;SDS011;21130;51.728;8.748;2023-03-01T04:08:46;18.55;;;13.65;;
34924;SDS011;21130;51.728;8.748;2023-03-01T04:11:17;18.85;;;13.70;;
34924;SDS011;21130;51.728;8.748;2023-03-01T04:13:53;19.13;;;13.02;;
34924;SDS011;21130;51.728;8.748;2023-03-01T04:16:21;20.23;;;14.07;;
34924;SDS011;21130;51.728;8.748;2023-03-01T04:18:48;19.63;;;13.35;;
34924;SDS011;21130;51.728;8.748;2023-03-01T04:21:15;19.35;;;13.82;;
34924;SDS011;21130;51.728;8.748;2023-03-01T04:23:42;22.25;;;14.60;;
34924;SDS011;21130;51.728;8.748;2023-03-01T04:26:08;21.67;;;14.48;;
34924;SDS011;21130;51.728;8.748;2023-03-01T04:28:37;18.45;;;13.82;;
34924;SDS011;21130;51.728;8.748;2023-03-01T04:31:08;21.42;;;14.30;;
34924;SDS011;21130;51.728;8.748;2023-03-01T04:33:39;18.45;;;13.80;;
34924;SDS011;21130;51.728;8.748;2023-03-01T04:36:07;20.23;;;13.35;;
34924;SDS011;21130;51.728;8.748;2023-03-01T04:38:34;19.92;;;12.90;;
34924;SDS011;21130;51.728;8.748;2023-03-01T04:41:02;20.85;;;13.55;;
34924;SDS011;21130;51.728;8.748;2023-03-01T04:43:29;21.60;;;14.35;;
34924;SDS011;21130;51.728;8.748;2023-03-01T04:46:01;20.00;;;14.50;;
34924;SDS011;21130;51.728;8.748;2023-03-01T04:48:28;19.05;;;12.95;;
34924;SDS011;21130;51.728;8.748;2023-03-01T04:50:55;19.55;;;13.05;;
34924;SDS011;21130;51.728;8.748;2023-03-01T04:53:21;17.73;;;13.00;;
34924;SDS011;21130;51.728;8.748;2023-03-01T04:55:48;19.85;;;13.27;;
34924;SDS011;21130;51.728;8.748;2023-03-01T04:58:14;16.15;;;12.60;;
34924;SDS011;21130;51.728;8.748;2023-03-01T05:00:41;20.30;;;14.02;;
34924;SDS011;21130;51.728;8.748;2023-03-01T05:03:09;20.27;;;13.95;;
34924;SDS011;21130;51.728;8.748;2023-03-01T05:05:36;17.58;;;12.30;;
34924;SDS011;21130;51.728;8.748;2023-03-01T05:08:04;19.45;;;12.57;;
34924;SDS011;21130;51.728;8.748;2023-03-01T05:10:33;19.33;;;13.00;;
34924;SDS011;21130;51.728;8.748;2023-03-01T05:13:03;20.95;;;12.98;;
34924;SDS011;21130;51.728;8.748;2023-03-01T05:15:31;20.45;;;14.02;;
34924;SDS011;21130;51.728;8.748;2023-03-01T05:17:59;20.13;;;13.20;;
34924;SDS011;21130;51.728;8.748;2023-03-01T05:20:27;20.38;;;13.02;;
34924;SDS011;21130;51.728;8.748;2023-03-01T05:22:55;17.52;;;13.07;;
34924;SDS011;21130;51.728;8.748;2023-03-01T05:25:23;18.67;;;13.10;;
34924;SDS011;21130;51.728;8.748;2023-03-01T05:27:50;19.67;;;12.95;;
34924;SDS011;21130;51.728;8.748;2023-03-01T05:30:17;20.55;;;13.18;;
34924;SDS011;21130;51.728;8.748;2023-03-01T05:32:44;18.45;;;13.30;;
34924;SDS011;21130;51.728;8.748;2023-03-01T05:35:12;18.95;;;13.15;;
34924;SDS011;21130;51.728;8.748;2023-03-01T05:37:42;18.52;;;13.35;;
34924;SDS011;21130;51.728;8.748;2023-03-01T05:40:10;18.67;;;13.18;;
34924;SDS011;21130;51.728;8.748;2023-03-01T05:42:41;22.65;;;19.75;;
34924;SDS011;21130;51.728;8.748;2023-03-01T05:45:09;21.63;;;14.85;;
34924;SDS011;21130;51.728;8.748;2023-03-01T05:47:37;20.73;;;14.23;;
34924;SDS011;21130;51.728;8.748;2023-03-01T05:50:04;22.00;;;15.25;;
34924;SDS011;21130;51.728;8.748;2023-03-01T05:52:32;21.02;;;15.30;;
34924;SDS011;21130;51.728;8.748;2023-03-01T05:55:00;22.40;;;14.93;;
34924;SDS011;21130;51.728;8.748;2023-03-01T05:57:27;24.52;;;16.25;;
34924;SDS011;21130;51.728;8.748;2023-03-01T05:59:54;22.47;;;15.70;;
34924;SDS011;21130;51.728;8.748;2023-03-01T06:02:21;22.88;;;15.88;;
34924;SDS011;21130;51.728;8.748;2023-03-01T06:04:48;26.50;;;16.90;;
34924;SDS011;21130;51.728;8.748;2023-03-01T06:07:14;25.70;;;18.30;;
34924;SDS011;21130;51.728;8.748;2023-03-01T06:09:40;29.08;;;17.80;;
34924;SDS011;21130;51.728;8.748;2023-03-01T06:12:08;22.10;;;15.80;;
34924;SDS011;21130;51.728;8.748;2023-03-01T06:14:35;23.25;;;15.75;;
34924;SDS011;21130;51.728;8.748;2023-03-01T06:17:01;23.65;;;15.23;;
34924;SDS011;21130;51.728;8.748;2023-03-01T06:19:28;21.70;;;14.43;;
34924;SDS011;21130;51.728;8.748;2023-03-01T06:21:54;22.63;;;14.35;;
34924;SDS011;21130;51.728;8.748;2023-03-01T06:24:21;21.52;;;14.43;;
34924;SDS011;21130;51.728;8.748;2023-03-01T06:26:47;23.42;;;14.00;;
34924;SDS011;21130;51.728;8.748;2023-03-01T06:29:15;20.30;;;14.45;;
34924;SDS011;21130;51.728;8.748;2023-03-01T06:31:42;23.65;;;14.57;;
34924;SDS011;21130;51.728;8.748;2023-03-01T06:34:10;21.40;;;15.02;;
34924;SDS011;21130;51.728;8.748;2023-03-01T06:36:38;20.98;;;14.68;;
34924;SDS011;21130;51.728;8.748;2023-03-01T06:39:05;21.67;;;14.32;;
34924;SDS011;21130;51.728;8.748;2023-03-01T06:41:31;21.90;;;14.93;;
34924;SDS011;21130;51.728;8.748;2023-03-01T06:44:20;22.90;;;15.38;;
34924;SDS011;21130;51.728;8.748;2023-03-01T06:47:05;22.00;;;14.73;;
34924;SDS011;21130;51.728;8.748;2023-03-01T06:49:50;26.23;;;15.95;;
34924;SDS011;21130;51.728;8.748;2023-03-01T06:52:37;21.88;;;15.23;;
34924;SDS011;21130;51.728;8.748;2023-03-01T06:55:04;24.00;;;15.13;;
34924;SDS011;21130;51.728;8.748;2023-03-01T06:57:31;23.08;;;16.42;;
34924;SDS011;21130;51.728;8.748;2023-03-01T06:59:59;25.83;;;19.02;;
34924;SDS011;21130;51.728;8.748;2023-03-01T07:02:26;28.33;;;17.65;;
34924;SDS011;21130;51.728;8.748;2023-03-01T07:04:52;25.92;;;16.92;;
34924;SDS011;21130;51.728;8.748;2023-03-01T07:07:19;24.50;;;17.58;;
34924;SDS011;21130;51.728;8.748;2023-03-01T07:09:45;25.10;;;17.23;;
34924;SDS011;21130;51.728;8.748;2023-03-01T07:12:12;27.95;;;17.20;;
34924;SDS011;21130;51.728;8.748;2023-03-01T07:14:39;29.90;;;17.58;;
34924;SDS011;21130;51.728;8.748;2023-03-01T07:17:07;26.90;;;18.05;;
34924;SDS011;21130;51.728;8.748;2023-03-01T07:19:33;24.00;;;16.45;;
34924;SDS011;21130;51.728;8.748;2023-03-01T07:22:00;25.48;;;16.17;;
34924;SDS011;21130;51.728;8.748;2023-03-01T07:24:26;23.17;;;16.13;;
34924;SDS011;21130;51.728;8.748;2023-03-01T07:26:53;23.13;;;15.15;;
34924;SDS011;21130;51.728;8.748;2023-03-01T07:29:19;22.02;;;15.50;;
34924;SDS011;21130;51.728;8.748;2023-03-01T07:31:47;21.17;;;14.98;;
34924;SDS011;21130;51.728;8.748;2023-03-01T07:34:15;20.63;;;14.82;;
34924;SDS011;21130;51.728;8.748;2023-03-01T07:36:41;19.25;;;14.75;;
34924;SDS011;21130;51.728;8.748;2023-03-01T07:39:10;19.30;;;14.25;;
34924;SDS011;21130;51.728;8.748;2023-03-01T07:41:37;18.48;;;14.25;;
34924;SDS011;21130;51.728;8.748;2023-03-01T07:44:03;16.88;;;13.55;;
34924;SDS011;21130;51.728;8.748;2023-03-01T07:46:30;17.98;;;13.52;;
34924;SDS011;21130;51.728;8.748;2023-03-01T07:48:56;16.90;;;13.73;;
34924;SDS011;21130;51.728;8.748;2023-03-01T07:51:24;19.90;;;12.55;;
34924;SDS011;21130;51.728;8.748;2023-03-01T07:53:51;16.02;;;12.40;;
34924;SDS011;21130;51.728;8.748;2023-03-01T07:56:18;16.70;;;13.35;;
34924;SDS011;21130;51.728;8.748;2023-03-01T07:58:46;14.52;;;12.00;;
34924;SDS011;21130;51.728;8.748;2023-03-01T08:01:14;15.43;;;11.85;;
34924;SDS011;21130;51.728;8.748;2023-03-01T08:03:42;16.55;;;12.07;;
34924;SDS011;21130;51.728;8.748;2023-03-01T08:06:09;17.30;;;11.40;;
34924;SDS011;21130;51.728;8.748;2023-03-01T08:08:39;15.35;;;11.73;;
34924;SDS011;21130;51.728;8.748;2023-03-01T08:11:06;13.35;;;10.82;;
34924;SDS011;21130;51.728;8.748;2023-03-01T08:13:34;13.77;;;10.32;;
34924;SDS011;21130;51.728;8.748;2023-03-01T08:16:01;14.73;;;9.82;;
34924;SDS011;21130;51.728;8.748;2023-03-01T08:18:28;15.85;;;11.07;;
34924;SDS011;21130;51.728;8.748;2023-03-01T08:20:55;12.30;;;10.02;;
34924;SDS011;21130;51.728;8.748;2023-03-01T08:23:22;15.23;;;10.48;;
34924;SDS011;21130;51.728;8.748;2023-03-01T08:25:50;14.85;;;10.18;;
34924;SDS011;21130;51.728;8.748;2023-03-01T08:28:17;13.55;;;9.65;;
34924;SDS011;21130;51.728;8.748;2023-03-01T08:30:44;13.52;;;9.07;;
34924;SDS011;21130;51.728;8.748;2023-03-01T08:33:11;11.55;;;9.23;;
34924;SDS011;21130;51.728;8.748;2023-03-01T08:35:38;13.73;;;9.52;;
34924;SDS011;21130;51.728;8.748;2023-03-01T08:38:05;11.10;;;9.07;;
34924;SDS011;21130;51.728;8.748;2023-03-01T08:40:31;11.23;;;8.98;;
34924;SDS011;21130;51.728;8.748;2023-03-01T08:42:59;15.25;;;8.88;;
34924;SDS011;21130;51.728;8.748;2023-03-01T08:45:26;12.40;;;9.07;;
34924;SDS011;21130;51.728;8.748;2023-03-01T08:47:53;10.13;;;8.70;;
34924;SDS011;21130;51.728;8.748;2023-03-01T08:50:19;10.15;;;7.78;;
34924;SDS011;21130;51.728;8.748;2023-03-01T08:52:46;9.43;;;7.75;;
34924;SDS011;21130;51.728;8.748;2023-03-01T08:55:12;7.43;;;6.63;;
34924;SDS011;21130;51.728;8.748;2023-03-01T08:57:42;9.60;;;7.03;;
34924;SDS011;21130;51.728;8.748;2023-03-01T09:00:11;7.38;;;6.47;;
34924;SDS011;21130;51.728;8.748;2023-03-01T09:02:39;8.63;;;6.90;;
34924;SDS011;21130;51.728;8.748;2023-03-01T09:05:06;8.30;;;6.53;;
34924;SDS011;21130;51.728;8.748;2023-03-01T09:07:34;7.85;;;6.65;;
34924;SDS011;21130;51.728;8.748;2023-03-01T09:10:00;9.45;;;6.68;;
34924;SDS011;21130;51.728;8.748;2023-03-01T09:12:27;7.90;;;6.53;;
34924;SDS011;21130;51.728;8.748;2023-03-01T09:14:53;7.05;;;6.20;;
34924;SDS011;21130;51.728;8.748;2023-03-01T09:17:21;7.30;;;6.30;;
34924;SDS011;21130;51.728;8.748;2023-03-01T09:19:48;9.82;;;6.38;;
34924;SDS011;21130;51.728;8.748;2023-03-01T09:22:15;7.47;;;6.57;;
34924;SDS011;21130;51.728;8.748;2023-03-01T09:24:41;7.80;;;6.60;;
34924;SDS011;21130;51.728;8.748;2023-03-01T09:27:08;7.18;;;6.20;;
34924;SDS011;21130;51.728;8.748;2023-03-01T09:29:36;7.60;;;6.25;;
34924;SDS011;21130;51.728;8.748;2023-03-01T09:32:03;7.70;;;5.60;;
34924;SDS011;21130;51.728;8.748;2023-03-01T09:34:33;6.85;;;5.40;;
34924;SDS011;21130;51.728;8.748;2023-03-01T09:37:20;9.23;;;6.30;;
34924;SDS011;21130;51.728;8.748;2023-03-01T09:39:46;13.00;;;6.65;;
34924;SDS011;21130;51.728;8.748;2023-03-01T09:42:13;8.77;;;6.03;;
34924;SDS011;21130;51.728;8.748;2023-03-01T09:44:42;7.65;;;6.10;;
34924;SDS011;21130;51.728;8.748;2023-03-01T09:47:16;8.60;;;6.60;;
34924;SDS011;21130;51.728;8.748;2023-03-01T09:49:47;8.00;;;5.65;;
34924;SDS011;21130;51.728;8.748;2023-03-01T09:52:28;6.90;;;5.53;;
34924;SDS011;21130;51.728;8.748;2023-03-01T09:54:59;6.10;;;5.43;;
34924;SDS011;21130;51.728;8.748;2023-03-01T09:57:28;6.65;;;5.65;;
34924;SDS011;21130;51.728;8.748;2023-03-01T10:00:01;6.82;;;5.50;;
34924;SDS011;21130;51.728;8.748;2023-03-01T10:02:44;6.45;;;5.25;;
34924;SDS011;21130;51.728;8.748;2023-03-01T10:05:21;5.95;;;5.03;;
34924;SDS011;21130;51.728;8.748;2023-03-01T10:08:00;7.93;;;5.35;;
34924;SDS011;21130;51.728;8.748;2023-03-01T10:10:43;6.47;;;5.40;;
34924;SDS011;21130;51.728;8.748;2023-03-01T10:13:14;6.28;;;5.13;;
34924;SDS011;21130;51.728;8.748;2023-03-01T10:15:47;5.97;;;5.20;;
34924;SDS011;21130;51.728;8.748;2023-03-01T10:18:20;8.38;;;5.53;;
34924;SDS011;21130;51.728;8.748;2023-03-01T10:20:53;7.93;;;5.60;;
34924;SDS011;21130;51.728;8.748;2023-03-01T10:23:25;6.03;;;5.28;;
34924;SDS011;21130;51.728;8.748;2023-03-01T10:25:57;6.95;;;5.40;;
34924;SDS011;21130;51.728;8.748;2023-03-01T10:28:43;6.60;;;5.13;;
34924;SDS011;21130;51.728;8.748;2023-03-01T10:31:18;6.10;;;5.45;;
34924;SDS011;21130;51.728;8.748;2023-03-01T10:33:47;5.90;;;5.15;;
34924;SDS011;21130;51.728;8.748;2023-03-01T10:36:20;6.80;;;5.65;;
34924;SDS011;21130;51.728;8.748;2023-03-01T10:38:47;6.20;;;5.20;;
34924;SDS011;21130;51.728;8.748;2023-03-01T10:41:17;6.95;;;5.38;;
34924;SDS011;21130;51.728;8.748;2023-03-01T10:43:45;7.03;;;5.30;;
34924;SDS011;21130;51.728;8.748;2023-03-01T10:46:21;6.15;;;5.03;;
34924;SDS011;21130;51.728;8.748;2023-03-01T10:48:59;6.63;;;5.43;;
34924;SDS011;21130;51.728;8.748;2023-03-01T10:51:37;5.53;;;5.03;;
34924;SDS011;21130;51.728;8.748;2023-03-01T10:54:06;7.57;;;5.10;;
34924;SDS011;21130;51.728;8.748;2023-03-01T10:56:46;6.22;;;5.40;;
34924;SDS011;21130;51.728;8.748;2023-03-01T10:59:20;7.10;;;4.90;;
34924;SDS011;21130;51.728;8.748;2023-03-01T11:02:01;8.15;;;5.43;;
34924;SDS011;21130;51.728;8.748;2023-03-01T11:04:30;6.50;;;5.32;;
34924;SDS011;21130;51.728;8.748;2023-03-01T11:06:59;6.43;;;5.15;;
34924;SDS011;21130;51.728;8.748;2023-03-01T11:09:30;5.70;;;4.78;;
34924;SDS011;21130;51.728;8.748;2023-03-01T11:12:03;6.07;;;5.40;;
34924;SDS011;21130;51.728;8.748;2023-03-01T11:14:32;6.97;;;5.22;;
34924;SDS011;21130;51.728;8.748;2023-03-01T11:17:03;6.32;;;5.28;;
34924;SDS011;21130;51.728;8.748;2023-03-01T11:19:31;7.63;;;5.85;;
34924;SDS011;21130;51.728;8.748;2023-03-01T11:22:01;6.85;;;6.03;;
34924;SDS011;21130;51.728;8.748;2023-03-01T11:24:31;7.03;;;6.05;;
34924;SDS011;21130;51.728;8.748;2023-03-01T11:27:07;6.07;;;5.45;;
34924;SDS011;21130;51.728;8.748;2023-03-01T11:29:42;8.43;;;6.05;;
34924;SDS011;21130;51.728;8.748;2023-03-01T11:32:16;6.93;;;5.70;;
34924;SDS011;21130;51.728;8.748;2023-03-01T11:34:46;6.97;;;5.78;;
34924;SDS011;21130;51.728;8.748;2023-03-01T11:37:22;7.18;;;5.93;;
34924;SDS011;21130;51.728;8.748;2023-03-01T11:39:59;6.82;;;5.57;;
34924;SDS011;21130;51.728;8.748;2023-03-01T11:42:40;6.93;;;5.97;;
34924;SDS011;21130;51.728;8.748;2023-03-01T11:45:14;7.07;;;5.60;;
34924;SDS011;21130;51.728;8.748;2023-03-01T11:47:51;6.78;;;5.60;;
34924;SDS011;21130;51.728;8.748;2023-03-01T11:50:38;6.28;;;5.50;;
34924;SDS011;21130;51.728;8.748;2023-03-01T11:53:17;7.38;;;5.70;;
34924;SDS011;21130;51.728;8.748;2023-03-01T11:55:58;6.63;;;5.88;;
34924;SDS011;21130;51.728;8.748;2023-03-01T11:58:54;5.75;;;5.15;;
34924;SDS011;21130;51.728;8.748;2023-03-01T12:01:43;6.57;;;5.43;;
34924;SDS011;21130;51.728;8.748;2023-03-01T12:04:28;6.75;;;5.25;;
34924;SDS011;21130;51.728;8.748;2023-03-01T12:07:19;6.20;;;5.00;;
34924;SDS011;21130;51.728;8.748;2023-03-01T12:09:56;5.80;;;5.13;;
34924;SDS011;21130;51.728;8.748;2023-03-01T12:12:32;5.68;;;5.07;;
34924;SDS011;21130;51.728;8.748;2023-03-01T12:15:13;7.78;;;5.68;;
34924;SDS011;21130;51.728;8.748;2023-03-01T12:17:58;6.65;;;5.45;;
34924;SDS011;21130;51.728;8.748;2023-03-01T12:20:39;6.10;;;5.15;;
34924;SDS011;21130;51.728;8.748;2023-03-01T12:23:28;6.00;;;5.25;;
34924;SDS011;21130;51.728;8.748;2023-03-01T12:26:08;8.02;;;5.45;;
34924;SDS011;21130;51.728;8.748;2023-03-01T12:28:44;6.10;;;5.28;;
34924;SDS011;21130;51.728;8.748;2023-03-01T12:34:26;6.80;;;5.40;;
34924;SDS011;21130;51.728;8.748;2023-03-01T12:37:11;8.07;;;5.43;;
34924;SDS011;21130;51.728;8.748;2023-03-01T12:39:50;6.47;;;5.63;;
34924;SDS011;21130;51.728;8.748;2023-03-01T12:42:32;6.40;;;5.03;;
34924;SDS011;21130;51.728;8.748;2023-03-01T12:45:18;7.95;;;5.47;;
34924;SDS011;21130;51.728;8.748;2023-03-01T12:48:08;6.53;;;5.38;;
34924;SDS011;21130;51.728;8.748;2023-03-01T12:50:45;5.78;;;4.90;;
34924;SDS011;21130;51.728;8.748;2023-03-01T12:53:19;6.47;;;5.15;;
34924;SDS011;21130;51.728;8.748;2023-03-01T12:55:49;8.35;;;5.57;;
34924;SDS011;21130;51.728;8.748;2023-03-01T12:58:23;5.78;;;5.00;;
34924;SDS011;21130;51.728;8.748;2023-03-01T13:01:05;6.28;;;5.00;;
34924;SDS011;21130;51.728;8.748;2023-03-01T13:03:48;6.38;;;4.78;;
34924;SDS011;21130;51.728;8.748;2023-03-01T13:06:29;6.80;;;5.35;;
34924;SDS011;21130;51.728;8.748;2023-03-01T13:09:07;6.85;;;5.57;;
34924;SDS011;21130;51.728;8.748;2023-03-01T13:11:41;8.05;;;5.75;;
34924;SDS011;21130;51.728;8.748;2023-03-01T13:20:12;5.53;;;4.88;;
34924;SDS011;21130;51.728;8.748;2023-03-01T13:22:40;6.63;;;5.07;;
34924;SDS011;21130;51.728;8.748;2023-03-01T13:25:15;5.97;;;5.38;;
34924;SDS011;21130;51.728;8.748;2023-03-01T13:27:44;5.95;;;5.07;;
34924;SDS011;21130;51.728;8.748;2023-03-01T13:36:09;13.88;;;5.55;;
34924;SDS011;21130;51.728;8.748;2023-03-01T13:38:47;6.13;;;5.10;;
34924;SDS011;21130;51.728;8.748;2023-03-01T13:44:19;7.28;;;5.07;;
34924;SDS011;21130;51.728;8.748;2023-03-01T13:46:53;6.78;;;4.75;;
34924;SDS011;21130;51.728;8.748;2023-03-01T13:49:23;6.38;;;5.15;;
34924;SDS011;21130;51.728;8.748;2023-03-01T13:51:53;8.27;;;5.28;;
34924;SDS011;21130;51.728;8.748;2023-03-01T13:54:22;7.70;;;5.93;;
34924;SDS011;21130;51.728;8.748;2023-03-01T13:56:53;5.95;;;4.90;;
34924;SDS011;21130;51.728;8.748;2023-03-01T13:59:21;10.45;;;5.13;;
34924;SDS011;21130;51.728;8.748;2023-03-01T14:01:53;6.40;;;4.38;;
34924;SDS011;21130;51.728;8.748;2023-03-01T14:04:21;5.53;;;5.00;;
34924;SDS011;21130;51.728;8.748;2023-03-01T14:06:49;5.72;;;5.07;;
34924;SDS011;21130;51.728;8.748;2023-03-01T14:09:17;5.75;;;4.60;;
34924;SDS011;21130;51.728;8.748;2023-03-01T14:12:12;5.25;;;4.75;;
34924;SDS011;21130;51.728;8.748;2023-03-01T14:14:48;6.80;;;5.18;;
34924;SDS011;21130;51.728;8.748;2023-03-01T14:17:28;6.00;;;4.82;;
34924;SDS011;21130;51.728;8.748;2023-03-01T14:20:09;8.80;;;4.57;;
34924;SDS011;21130;51.728;8.748;2023-03-01T14:22:41;7.93;;;4.85;;
34924;SDS011;21130;51.728;8.748;2023-03-01T14:25:22;5.20;;;4.70;;
34924;SDS011;21130;51.728;8.748;2023-03-01T14:27:51;6.93;;;5.25;;
34924;SDS011;21130;51.728;8.748;2023-03-01T14:30:22;5.20;;;4.70;;
34924;SDS011;21130;51.728;8.748;2023-03-01T14:32:53;6.63;;;5.25;;
34924;SDS011;21130;51.728;8.748;2023-03-01T14:35:22;7.68;;;5.60;;
34924;SDS011;21130;51.728;8.748;2023-03-01T14:37:51;6.32;;;5.38;;
34924;SDS011;21130;51.728;8.748;2023-03-01T14:43:10;5.70;;;5.05;;
34924;SDS011;21130;51.728;8.748;2023-03-01T14:45:38;7.85;;;5.95;;
34924;SDS011;21130;51.728;8.748;2023-03-01T14:48:06;6.25;;;5.60;;
34924;SDS011;21130;51.728;8.748;2023-03-01T14:50:34;7.13;;;5.93;;
34924;SDS011;21130;51.728;8.748;2023-03-01T14:53:06;8.15;;;5.65;;
34924;SDS011;21130;51.728;8.748;2023-03-01T14:55:38;8.18;;;5.60;;
34924;SDS011;21130;51.728;8.748;2023-03-01T14:58:09;6.28;;;5.18;;
34924;SDS011;21130;51.728;8.748;2023-03-01T15:00:40;6.63;;;5.40;;
34924;SDS011;21130;51.728;8.748;2023-03-01T15:03:19;7.30;;;5.32;;
34924;SDS011;21130;51.728;8.748;2023-03-01T15:05:54;6.03;;;5.40;;
34924;SDS011;21130;51.728;8.748;2023-03-01T15:08:22;8.00;;;5.60;;
34924;SDS011;21130;51.728;8.748;2023-03-01T15:10:58;8.48;;;6.50;;
34924;SDS011;21130;51.728;8.748;2023-03-01T15:13:29;7.90;;;5.95;;
34924;SDS011;21130;51.728;8.748;2023-03-01T15:16:02;7.40;;;5.30;;
34924;SDS011;21130;51.728;8.748;2023-03-01T15:18:35;8.20;;;5.88;;